sensor_id;sensor_type;location;lat;lon;timestamp;temperature;humidity
69595;DHT22;56800;52.142;5.364;2023-07-31T00:01:35;16.50;78.60
69595;DHT22;56800;52.142;5.364;2023-07-31T00:04:02;16.50;78.60
69595;DHT22;56800;52.142;5.364;2023-07-31T00:06:29;16.50;78.60
69595;DHT22;56800;52.142;5.364;2023-07-31T00:08:56;16.50;78.60
69595;DHT22;56800;52.142;5.364;2023-07-31T00:11:23;16.50;78.70
69595;DHT22;56800;52.142;5.364;2023-07-31T00:13:50;16.50;78.80
69595;DHT22;56800;52.142;5.364;2023-07-31T00:16:16;16.50;78.90
69595;DHT22;56800;52.142;5.364;2023-07-31T00:18:43;16.50;78.90
69595;DHT22;56800;52.142;5.364;2023-07-31T00:21:10;16.60;79.10
69595;DHT22;56800;52.142;5.364;2023-07-31T00:23:36;16.60;79.10
69595;DHT22;56800;52.142;5.364;2023-07-31T00:26:03;16.60;79.10
69595;DHT22;56800;52.142;5.364;2023-07-31T00:28:30;16.60;79.10
69595;DHT22;56800;52.142;5.364;2023-07-31T00:30:57;16.70;79.10
69595;DHT22;56800;52.142;5.364;2023-07-31T00:33:23;16.70;79.10
69595;DHT22;56800;52.142;5.364;2023-07-31T00:35:50;16.70;79.20
69595;DHT22;56800;52.142;5.364;2023-07-31T00:38:17;16.70;79.30
69595;DHT22;56800;52.142;5.364;2023-07-31T00:40:43;16.80;79.40
69595;DHT22;56800;52.142;5.364;2023-07-31T00:43:10;16.70;79.50
69595;DHT22;56800;52.142;5.364;2023-07-31T00:45:37;16.80;79.70
69595;DHT22;56800;52.142;5.364;2023-07-31T00:48:04;16.80;79.80
69595;DHT22;56800;52.142;5.364;2023-07-31T00:50:33;16.80;80.00
69595;DHT22;56800;52.142;5.364;2023-07-31T00:53:00;16.90;80.00
69595;DHT22;56800;52.142;5.364;2023-07-31T00:55:26;17.00;80.30
69595;DHT22;56800;52.142;5.364;2023-07-31T00:57:53;16.90;80.40
69595;DHT22;56800;52.142;5.364;2023-07-31T01:00:22;17.00;80.70
69595;DHT22;56800;52.142;5.364;2023-07-31T01:02:50;17.00;80.70
69595;DHT22;56800;52.142;5.364;2023-07-31T01:05:25;17.00;80.80
69595;DHT22;56800;52.142;5.364;2023-07-31T01:08:12;17.10;81.00
69595;DHT22;56800;52.142;5.364;2023-07-31T01:10:49;17.10;81.10
69595;DHT22;56800;52.142;5.364;2023-07-31T01:13:17;17.20;81.10
69595;DHT22;56800;52.142;5.364;2023-07-31T01:15:45;17.20;81.20
69595;DHT22;56800;52.142;5.364;2023-07-31T01:18:11;17.20;81.10
69595;DHT22;56800;52.142;5.364;2023-07-31T01:20:41;17.20;81.00
69595;DHT22;56800;52.142;5.364;2023-07-31T01:26:21;17.20;80.80
69595;DHT22;56800;52.142;5.364;2023-07-31T01:31:23;17.10;80.80
69595;DHT22;56800;52.142;5.364;2023-07-31T01:33:53;17.10;80.80
69595;DHT22;56800;52.142;5.364;2023-07-31T01:36:21;17.20;80.80
69595;DHT22;56800;52.142;5.364;2023-07-31T01:38:48;17.20;80.80
69595;DHT22;56800;52.142;5.364;2023-07-31T01:41:17;17.10;80.70
69595;DHT22;56800;52.142;5.364;2023-07-31T01:43:47;17.20;80.80
69595;DHT22;56800;52.142;5.364;2023-07-31T01:46:14;17.20;80.90
69595;DHT22;56800;52.142;5.364;2023-07-31T01:48:41;17.10;80.90
69595;DHT22;56800;52.142;5.364;2023-07-31T01:51:08;17.20;81.10
69595;DHT22;56800;52.142;5.364;2023-07-31T01:53:35;17.20;81.30
69595;DHT22;56800;52.142;5.364;2023-07-31T01:56:01;17.20;81.40
69595;DHT22;56800;52.142;5.364;2023-07-31T01:58:28;17.20;81.40
69595;DHT22;56800;52.142;5.364;2023-07-31T02:00:55;17.20;81.40
69595;DHT22;56800;52.142;5.364;2023-07-31T02:03:22;17.30;81.50
69595;DHT22;56800;52.142;5.364;2023-07-31T02:05:49;17.30;81.40
69595;DHT22;56800;52.142;5.364;2023-07-31T02:08:16;17.30;81.50
69595;DHT22;56800;52.142;5.364;2023-07-31T02:10:43;17.30;81.40
69595;DHT22;56800;52.142;5.364;2023-07-31T02:13:10;17.40;81.50
69595;DHT22;56800;52.142;5.364;2023-07-31T02:15:37;17.30;81.30
69595;DHT22;56800;52.142;5.364;2023-07-31T02:18:04;17.30;81.30
69595;DHT22;56800;52.142;5.364;2023-07-31T02:20:34;17.40;81.20
69595;DHT22;56800;52.142;5.364;2023-07-31T02:23:01;17.40;82.00
69595;DHT22;56800;52.142;5.364;2023-07-31T02:25:28;17.40;81.20
69595;DHT22;56800;52.142;5.364;2023-07-31T02:27:55;17.40;81.20
69595;DHT22;56800;52.142;5.364;2023-07-31T02:30:22;17.40;81.10
69595;DHT22;56800;52.142;5.364;2023-07-31T02:32:49;17.40;81.10
69595;DHT22;56800;52.142;5.364;2023-07-31T02:35:16;17.40;81.00
69595;DHT22;56800;52.142;5.364;2023-07-31T02:37:45;17.40;81.00
69595;DHT22;56800;52.142;5.364;2023-07-31T02:40:12;17.40;81.00
69595;DHT22;56800;52.142;5.364;2023-07-31T02:42:38;17.40;81.00
69595;DHT22;56800;52.142;5.364;2023-07-31T02:45:06;17.40;81.00
69595;DHT22;56800;52.142;5.364;2023-07-31T02:47:33;17.40;81.10
69595;DHT22;56800;52.142;5.364;2023-07-31T02:49:59;17.40;81.00
69595;DHT22;56800;52.142;5.364;2023-07-31T02:52:26;17.40;81.00
69595;DHT22;56800;52.142;5.364;2023-07-31T02:54:53;17.40;81.00
69595;DHT22;56800;52.142;5.364;2023-07-31T02:57:20;17.40;81.00
69595;DHT22;56800;52.142;5.364;2023-07-31T02:59:46;17.40;81.00
69595;DHT22;56800;52.142;5.364;2023-07-31T03:02:13;17.50;81.10
69595;DHT22;56800;52.142;5.364;2023-07-31T03:04:40;17.40;81.70
69595;DHT22;56800;52.142;5.364;2023-07-31T03:07:07;17.40;80.80
69595;DHT22;56800;52.142;5.364;2023-07-31T03:09:34;17.50;80.80
69595;DHT22;56800;52.142;5.364;2023-07-31T03:12:00;17.50;80.80
69595;DHT22;56800;52.142;5.364;2023-07-31T03:14:27;17.50;80.80
69595;DHT22;56800;52.142;5.364;2023-07-31T03:16:54;17.50;80.90
69595;DHT22;56800;52.142;5.364;2023-07-31T03:19:21;17.50;80.80
69595;DHT22;56800;52.142;5.364;2023-07-31T03:21:47;17.40;80.80
69595;DHT22;56800;52.142;5.364;2023-07-31T03:24:14;17.50;80.70
69595;DHT22;56800;52.142;5.364;2023-07-31T03:26:41;17.40;80.80
69595;DHT22;56800;52.142;5.364;2023-07-31T03:29:10;17.40;80.80
69595;DHT22;56800;52.142;5.364;2023-07-31T03:31:37;17.40;80.70
69595;DHT22;56800;52.142;5.364;2023-07-31T03:34:04;17.40;80.70
69595;DHT22;56800;52.142;5.364;2023-07-31T03:36:30;17.40;80.60
69595;DHT22;56800;52.142;5.364;2023-07-31T03:38:58;17.40;80.60
69595;DHT22;56800;52.142;5.364;2023-07-31T03:41:25;17.40;80.60
69595;DHT22;56800;52.142;5.364;2023-07-31T03:43:51;17.40;80.60
69595;DHT22;56800;52.142;5.364;2023-07-31T03:46:18;17.40;80.60
69595;DHT22;56800;52.142;5.364;2023-07-31T03:48:45;17.40;80.60
69595;DHT22;56800;52.142;5.364;2023-07-31T03:51:12;17.40;80.50
69595;DHT22;56800;52.142;5.364;2023-07-31T03:53:39;17.40;80.50
69595;DHT22;56800;52.142;5.364;2023-07-31T03:56:05;17.40;80.40
69595;DHT22;56800;52.142;5.364;2023-07-31T03:58:32;17.40;80.30
69595;DHT22;56800;52.142;5.364;2023-07-31T04:00:59;17.30;80.30
69595;DHT22;56800;52.142;5.364;2023-07-31T04:03:26;17.40;80.30
69595;DHT22;56800;52.142;5.364;2023-07-31T04:05:54;17.30;80.20
69595;DHT22;56800;52.142;5.364;2023-07-31T04:08:22;17.40;81.00
69595;DHT22;56800;52.142;5.364;2023-07-31T04:10:50;17.40;80.20
69595;DHT22;56800;52.142;5.364;2023-07-31T04:13:17;17.40;80.20
69595;DHT22;56800;52.142;5.364;2023-07-31T04:15:48;17.30;80.10
69595;DHT22;56800;52.142;5.364;2023-07-31T04:18:16;17.30;80.10
69595;DHT22;56800;52.142;5.364;2023-07-31T04:20:43;17.30;80.00
69595;DHT22;56800;52.142;5.364;2023-07-31T04:23:10;17.30;80.00
69595;DHT22;56800;52.142;5.364;2023-07-31T04:25:36;17.30;80.00
69595;DHT22;56800;52.142;5.364;2023-07-31T04:28:03;17.30;80.00
69595;DHT22;56800;52.142;5.364;2023-07-31T04:30:30;17.30;79.90
69595;DHT22;56800;52.142;5.364;2023-07-31T04:32:57;17.30;79.90
69595;DHT22;56800;52.142;5.364;2023-07-31T04:35:23;17.20;79.90
69595;DHT22;56800;52.142;5.364;2023-07-31T04:37:50;17.30;80.00
69595;DHT22;56800;52.142;5.364;2023-07-31T04:40:17;17.20;79.90
69595;DHT22;56800;52.142;5.364;2023-07-31T04:42:44;17.20;79.80
69595;DHT22;56800;52.142;5.364;2023-07-31T04:45:10;17.20;79.90
69595;DHT22;56800;52.142;5.364;2023-07-31T04:47:37;17.20;79.90
69595;DHT22;56800;52.142;5.364;2023-07-31T04:50:04;17.20;79.90
69595;DHT22;56800;52.142;5.364;2023-07-31T04:52:31;17.20;79.90
69595;DHT22;56800;52.142;5.364;2023-07-31T04:54:58;17.20;79.80
69595;DHT22;56800;52.142;5.364;2023-07-31T04:57:24;17.20;79.90
69595;DHT22;56800;52.142;5.364;2023-07-31T04:59:51;17.10;79.90
69595;DHT22;56800;52.142;5.364;2023-07-31T05:02:18;17.10;79.90
69595;DHT22;56800;52.142;5.364;2023-07-31T05:04:45;17.10;80.00
69595;DHT22;56800;52.142;5.364;2023-07-31T05:07:11;17.10;80.10
69595;DHT22;56800;52.142;5.364;2023-07-31T05:09:38;17.10;80.20
69595;DHT22;56800;52.142;5.364;2023-07-31T05:12:06;17.10;80.30
69595;DHT22;56800;52.142;5.364;2023-07-31T05:14:33;17.10;80.20
69595;DHT22;56800;52.142;5.364;2023-07-31T05:17:00;17.10;80.20
69595;DHT22;56800;52.142;5.364;2023-07-31T05:19:26;17.10;80.30
69595;DHT22;56800;52.142;5.364;2023-07-31T05:21:53;17.00;80.30
69595;DHT22;56800;52.142;5.364;2023-07-31T05:24:20;17.00;80.40
69595;DHT22;56800;52.142;5.364;2023-07-31T05:26:46;17.00;80.40
69595;DHT22;56800;52.142;5.364;2023-07-31T05:29:13;17.00;80.50
69595;DHT22;56800;52.142;5.364;2023-07-31T05:31:40;17.00;80.60
69595;DHT22;56800;52.142;5.364;2023-07-31T05:34:06;17.00;80.60
69595;DHT22;56800;52.142;5.364;2023-07-31T05:36:33;17.00;80.70
69595;DHT22;56800;52.142;5.364;2023-07-31T05:39:00;17.00;81.10
69595;DHT22;56800;52.142;5.364;2023-07-31T05:41:26;17.00;80.60
69595;DHT22;56800;52.142;5.364;2023-07-31T05:43:53;16.90;80.60
69595;DHT22;56800;52.142;5.364;2023-07-31T05:46:20;16.90;80.60
69595;DHT22;56800;52.142;5.364;2023-07-31T05:48:46;16.90;80.80
69595;DHT22;56800;52.142;5.364;2023-07-31T05:51:13;16.90;80.80
69595;DHT22;56800;52.142;5.364;2023-07-31T05:53:40;16.90;81.60
69595;DHT22;56800;52.142;5.364;2023-07-31T05:56:07;16.90;80.90
69595;DHT22;56800;52.142;5.364;2023-07-31T05:58:34;16.90;80.90
69595;DHT22;56800;52.142;5.364;2023-07-31T06:01:01;16.90;80.90
69595;DHT22;56800;52.142;5.364;2023-07-31T06:03:28;16.90;81.00
69595;DHT22;56800;52.142;5.364;2023-07-31T06:05:54;16.90;81.70
69595;DHT22;56800;52.142;5.364;2023-07-31T06:08:21;16.90;81.00
69595;DHT22;56800;52.142;5.364;2023-07-31T06:10:48;16.90;81.00
69595;DHT22;56800;52.142;5.364;2023-07-31T06:13:14;16.90;81.10
69595;DHT22;56800;52.142;5.364;2023-07-31T06:15:41;16.90;81.10
69595;DHT22;56800;52.142;5.364;2023-07-31T06:18:08;16.90;81.10
69595;DHT22;56800;52.142;5.364;2023-07-31T06:20:35;16.90;81.10
69595;DHT22;56800;52.142;5.364;2023-07-31T06:23:02;16.90;81.10
69595;DHT22;56800;52.142;5.364;2023-07-31T06:25:30;16.90;81.10
69595;DHT22;56800;52.142;5.364;2023-07-31T06:27:57;16.90;81.10
69595;DHT22;56800;52.142;5.364;2023-07-31T06:30:23;16.90;81.20
69595;DHT22;56800;52.142;5.364;2023-07-31T06:32:50;16.90;81.30
69595;DHT22;56800;52.142;5.364;2023-07-31T06:35:17;17.00;81.40
69595;DHT22;56800;52.142;5.364;2023-07-31T06:37:44;17.00;81.40
69595;DHT22;56800;52.142;5.364;2023-07-31T06:40:11;17.00;81.40
69595;DHT22;56800;52.142;5.364;2023-07-31T06:42:38;17.00;81.40
69595;DHT22;56800;52.142;5.364;2023-07-31T06:45:05;17.00;81.40
69595;DHT22;56800;52.142;5.364;2023-07-31T06:47:32;17.00;81.50
69595;DHT22;56800;52.142;5.364;2023-07-31T06:49:59;17.00;81.50
69595;DHT22;56800;52.142;5.364;2023-07-31T06:52:26;17.00;81.60
69595;DHT22;56800;52.142;5.364;2023-07-31T06:55:04;17.00;82.40
69595;DHT22;56800;52.142;5.364;2023-07-31T06:57:42;17.10;81.80
69595;DHT22;56800;52.142;5.364;2023-07-31T07:00:09;17.10;81.70
69595;DHT22;56800;52.142;5.364;2023-07-31T07:02:36;17.10;81.80
69595;DHT22;56800;52.142;5.364;2023-07-31T07:05:03;17.10;82.70
69595;DHT22;56800;52.142;5.364;2023-07-31T07:07:30;17.10;82.00
69595;DHT22;56800;52.142;5.364;2023-07-31T07:09:56;17.20;82.10
69595;DHT22;56800;52.142;5.364;2023-07-31T07:12:23;17.20;82.00
69595;DHT22;56800;52.142;5.364;2023-07-31T07:14:50;17.20;82.00
69595;DHT22;56800;52.142;5.364;2023-07-31T07:17:19;17.20;82.00
69595;DHT22;56800;52.142;5.364;2023-07-31T07:19:47;17.20;82.10
69595;DHT22;56800;52.142;5.364;2023-07-31T07:22:15;17.30;82.10
69595;DHT22;56800;52.142;5.364;2023-07-31T07:24:42;17.30;82.10
69595;DHT22;56800;52.142;5.364;2023-07-31T07:27:08;17.30;82.10
69595;DHT22;56800;52.142;5.364;2023-07-31T07:29:35;17.30;82.10
69595;DHT22;56800;52.142;5.364;2023-07-31T07:32:02;17.30;82.10
69595;DHT22;56800;52.142;5.364;2023-07-31T07:34:29;17.30;82.10
69595;DHT22;56800;52.142;5.364;2023-07-31T07:36:55;17.40;82.20
69595;DHT22;56800;52.142;5.364;2023-07-31T07:39:22;17.40;82.30
69595;DHT22;56800;52.142;5.364;2023-07-31T07:41:49;17.40;82.30
69595;DHT22;56800;52.142;5.364;2023-07-31T07:44:16;17.40;82.40
69595;DHT22;56800;52.142;5.364;2023-07-31T07:46:43;17.40;82.30
69595;DHT22;56800;52.142;5.364;2023-07-31T07:49:10;17.50;82.50
69595;DHT22;56800;52.142;5.364;2023-07-31T07:51:36;17.50;82.60
69595;DHT22;56800;52.142;5.364;2023-07-31T07:54:04;17.50;82.50
69595;DHT22;56800;52.142;5.364;2023-07-31T07:56:30;17.50;82.60
69595;DHT22;56800;52.142;5.364;2023-07-31T07:58:57;17.50;82.60
69595;DHT22;56800;52.142;5.364;2023-07-31T08:01:24;17.50;82.60
69595;DHT22;56800;52.142;5.364;2023-07-31T08:03:51;17.60;82.60
69595;DHT22;56800;52.142;5.364;2023-07-31T08:06:17;17.60;82.70
69595;DHT22;56800;52.142;5.364;2023-07-31T08:08:44;17.60;82.70
69595;DHT22;56800;52.142;5.364;2023-07-31T08:11:11;17.60;82.70
69595;DHT22;56800;52.142;5.364;2023-07-31T08:13:37;17.70;82.80
69595;DHT22;56800;52.142;5.364;2023-07-31T08:16:04;17.70;82.80
69595;DHT22;56800;52.142;5.364;2023-07-31T08:18:32;17.70;82.60
69595;DHT22;56800;52.142;5.364;2023-07-31T08:20:59;17.80;82.60
69595;DHT22;56800;52.142;5.364;2023-07-31T08:23:26;17.80;82.70
69595;DHT22;56800;52.142;5.364;2023-07-31T08:25:52;17.80;82.60
69595;DHT22;56800;52.142;5.364;2023-07-31T08:28:19;17.80;82.60
69595;DHT22;56800;52.142;5.364;2023-07-31T08:30:46;17.80;82.60
69595;DHT22;56800;52.142;5.364;2023-07-31T08:33:13;17.80;82.60
69595;DHT22;56800;52.142;5.364;2023-07-31T08:35:40;17.80;82.70
69595;DHT22;56800;52.142;5.364;2023-07-31T08:38:06;17.80;82.80
69595;DHT22;56800;52.142;5.364;2023-07-31T08:40:36;17.90;82.90
69595;DHT22;56800;52.142;5.364;2023-07-31T08:43:04;17.90;83.70
69595;DHT22;56800;52.142;5.364;2023-07-31T08:45:32;18.00;82.90
69595;DHT22;56800;52.142;5.364;2023-07-31T08:48:00;18.00;82.70
69595;DHT22;56800;52.142;5.364;2023-07-31T08:50:27;18.00;82.60
69595;DHT22;56800;52.142;5.364;2023-07-31T08:52:54;18.00;82.60
69595;DHT22;56800;52.142;5.364;2023-07-31T08:55:24;18.10;82.80
69595;DHT22;56800;52.142;5.364;2023-07-31T08:57:52;18.10;82.70
69595;DHT22;56800;52.142;5.364;2023-07-31T09:00:23;18.10;82.80
69595;DHT22;56800;52.142;5.364;2023-07-31T09:02:54;18.20;82.80
69595;DHT22;56800;52.142;5.364;2023-07-31T09:05:23;18.20;82.70
69595;DHT22;56800;52.142;5.364;2023-07-31T09:07:51;18.20;83.50
69595;DHT22;56800;52.142;5.364;2023-07-31T09:10:18;18.20;82.60
69595;DHT22;56800;52.142;5.364;2023-07-31T09:12:45;18.30;82.60
69595;DHT22;56800;52.142;5.364;2023-07-31T09:15:12;18.30;82.60
69595;DHT22;56800;52.142;5.364;2023-07-31T09:18:00;18.30;82.60
69595;DHT22;56800;52.142;5.364;2023-07-31T09:20:28;18.30;82.60
69595;DHT22;56800;52.142;5.364;2023-07-31T09:22:55;18.30;82.50
69595;DHT22;56800;52.142;5.364;2023-07-31T09:25:26;18.30;82.50
69595;DHT22;56800;52.142;5.364;2023-07-31T09:28:01;18.30;82.50
69595;DHT22;56800;52.142;5.364;2023-07-31T09:30:29;18.30;82.60
69595;DHT22;56800;52.142;5.364;2023-07-31T09:33:06;18.40;82.60
69595;DHT22;56800;52.142;5.364;2023-07-31T09:35:34;18.40;82.60
69595;DHT22;56800;52.142;5.364;2023-07-31T09:38:06;18.40;83.30
69595;DHT22;56800;52.142;5.364;2023-07-31T09:40:35;18.40;82.50
69595;DHT22;56800;52.142;5.364;2023-07-31T09:43:03;18.40;82.60
69595;DHT22;56800;52.142;5.364;2023-07-31T09:45:34;18.50;82.70
69595;DHT22;56800;52.142;5.364;2023-07-31T09:48:09;18.50;82.80
69595;DHT22;56800;52.142;5.364;2023-07-31T09:50:38;18.60;82.70
69595;DHT22;56800;52.142;5.364;2023-07-31T09:53:08;18.60;82.60
69595;DHT22;56800;52.142;5.364;2023-07-31T09:55:36;18.60;82.50
69595;DHT22;56800;52.142;5.364;2023-07-31T09:58:05;18.60;82.30
69595;DHT22;56800;52.142;5.364;2023-07-31T10:00:32;18.60;83.00
69595;DHT22;56800;52.142;5.364;2023-07-31T10:03:01;18.70;82.30
69595;DHT22;56800;52.142;5.364;2023-07-31T10:05:49;18.60;82.30
69595;DHT22;56800;52.142;5.364;2023-07-31T10:08:18;18.60;82.40
69595;DHT22;56800;52.142;5.364;2023-07-31T10:10:46;18.70;82.50
69595;DHT22;56800;52.142;5.364;2023-07-31T10:13:14;18.70;82.50
69595;DHT22;56800;52.142;5.364;2023-07-31T10:15:41;18.70;82.40
69595;DHT22;56800;52.142;5.364;2023-07-31T10:18:10;18.70;83.20
69595;DHT22;56800;52.142;5.364;2023-07-31T10:20:38;18.70;82.30
69595;DHT22;56800;52.142;5.364;2023-07-31T10:23:06;18.80;82.30
69595;DHT22;56800;52.142;5.364;2023-07-31T10:25:33;18.70;82.30
69595;DHT22;56800;52.142;5.364;2023-07-31T10:28:00;18.70;82.40
69595;DHT22;56800;52.142;5.364;2023-07-31T10:30:30;18.80;82.40
69595;DHT22;56800;52.142;5.364;2023-07-31T10:32:58;18.80;82.40
69595;DHT22;56800;52.142;5.364;2023-07-31T10:35:25;18.80;82.30
69595;DHT22;56800;52.142;5.364;2023-07-31T10:37:52;18.80;82.30
69595;DHT22;56800;52.142;5.364;2023-07-31T10:40:24;18.80;82.20
69595;DHT22;56800;52.142;5.364;2023-07-31T10:42:53;18.80;83.00
69595;DHT22;56800;52.142;5.364;2023-07-31T10:48:01;18.80;82.20
69595;DHT22;56800;52.142;5.364;2023-07-31T10:50:30;18.80;82.20
69595;DHT22;56800;52.142;5.364;2023-07-31T10:52:59;18.80;82.20
69595;DHT22;56800;52.142;5.364;2023-07-31T10:55:39;18.90;82.20
69595;DHT22;56800;52.142;5.364;2023-07-31T10:58:11;18.90;82.00
69595;DHT22;56800;52.142;5.364;2023-07-31T11:00:40;18.90;82.00
69595;DHT22;56800;52.142;5.364;2023-07-31T11:03:09;18.90;82.00
69595;DHT22;56800;52.142;5.364;2023-07-31T11:11:05;18.90;82.20
69595;DHT22;56800;52.142;5.364;2023-07-31T11:13:42;19.00;82.40
69595;DHT22;56800;52.142;5.364;2023-07-31T11:16:10;19.00;82.30
69595;DHT22;56800;52.142;5.364;2023-07-31T11:18:39;19.00;82.40
69595;DHT22;56800;52.142;5.364;2023-07-31T11:21:18;19.00;82.30
69595;DHT22;56800;52.142;5.364;2023-07-31T11:23:47;19.10;82.30
69595;DHT22;56800;52.142;5.364;2023-07-31T11:26:14;19.10;82.20
69595;DHT22;56800;52.142;5.364;2023-07-31T11:28:41;19.10;82.10
69595;DHT22;56800;52.142;5.364;2023-07-31T11:31:10;19.10;82.00
69595;DHT22;56800;52.142;5.364;2023-07-31T11:33:37;19.10;82.10
69595;DHT22;56800;52.142;5.364;2023-07-31T11:36:04;19.10;82.00
69595;DHT22;56800;52.142;5.364;2023-07-31T11:38:32;19.10;82.00
69595;DHT22;56800;52.142;5.364;2023-07-31T11:41:03;19.10;82.10
69595;DHT22;56800;52.142;5.364;2023-07-31T11:43:33;19.20;82.30
69595;DHT22;56800;52.142;5.364;2023-07-31T11:46:01;19.20;82.10
69595;DHT22;56800;52.142;5.364;2023-07-31T11:48:34;19.20;82.00
69595;DHT22;56800;52.142;5.364;2023-07-31T11:51:08;19.20;81.90
69595;DHT22;56800;52.142;5.364;2023-07-31T11:53:42;19.20;81.80
69595;DHT22;56800;52.142;5.364;2023-07-31T11:56:12;19.20;81.80
69595;DHT22;56800;52.142;5.364;2023-07-31T11:58:40;19.20;82.50
69595;DHT22;56800;52.142;5.364;2023-07-31T12:01:08;19.20;82.50
69595;DHT22;56800;52.142;5.364;2023-07-31T12:03:35;19.20;81.80
69595;DHT22;56800;52.142;5.364;2023-07-31T12:06:02;19.20;81.80
69595;DHT22;56800;52.142;5.364;2023-07-31T12:08:29;19.20;81.90
69595;DHT22;56800;52.142;5.364;2023-07-31T12:11:02;19.20;81.70
69595;DHT22;56800;52.142;5.364;2023-07-31T12:13:31;19.20;81.70
69595;DHT22;56800;52.142;5.364;2023-07-31T12:16:00;19.20;81.70
69595;DHT22;56800;52.142;5.364;2023-07-31T12:18:30;19.20;81.90
69595;DHT22;56800;52.142;5.364;2023-07-31T12:20:58;19.20;82.00
69595;DHT22;56800;52.142;5.364;2023-07-31T12:23:32;19.20;81.90
69595;DHT22;56800;52.142;5.364;2023-07-31T12:26:20;19.20;81.90
69595;DHT22;56800;52.142;5.364;2023-07-31T12:28:48;19.20;81.90
69595;DHT22;56800;52.142;5.364;2023-07-31T12:31:16;19.20;82.00
69595;DHT22;56800;52.142;5.364;2023-07-31T12:33:47;19.20;81.90
69595;DHT22;56800;52.142;5.364;2023-07-31T12:36:17;19.20;82.90
69595;DHT22;56800;52.142;5.364;2023-07-31T12:38:45;19.20;82.00
69595;DHT22;56800;52.142;5.364;2023-07-31T12:41:12;19.20;82.00
69595;DHT22;56800;52.142;5.364;2023-07-31T12:43:41;19.20;81.90
69595;DHT22;56800;52.142;5.364;2023-07-31T12:46:08;19.20;81.80
69595;DHT22;56800;52.142;5.364;2023-07-31T12:48:35;19.20;81.80
69595;DHT22;56800;52.142;5.364;2023-07-31T12:51:02;19.20;81.90
69595;DHT22;56800;52.142;5.364;2023-07-31T12:53:29;19.20;81.90
69595;DHT22;56800;52.142;5.364;2023-07-31T12:55:57;19.20;81.80
69595;DHT22;56800;52.142;5.364;2023-07-31T12:58:23;19.20;81.70
69595;DHT22;56800;52.142;5.364;2023-07-31T13:00:50;19.20;81.90
69595;DHT22;56800;52.142;5.364;2023-07-31T13:03:17;19.30;81.90
69595;DHT22;56800;52.142;5.364;2023-07-31T13:05:44;19.30;81.90
69595;DHT22;56800;52.142;5.364;2023-07-31T13:08:11;19.30;82.00
69595;DHT22;56800;52.142;5.364;2023-07-31T13:10:38;19.30;82.00
69595;DHT22;56800;52.142;5.364;2023-07-31T13:13:05;19.30;81.80
69595;DHT22;56800;52.142;5.364;2023-07-31T13:15:32;19.40;81.80
69595;DHT22;56800;52.142;5.364;2023-07-31T13:17:59;19.40;82.60
69595;DHT22;56800;52.142;5.364;2023-07-31T13:20:26;19.40;81.80
69595;DHT22;56800;52.142;5.364;2023-07-31T13:22:53;19.40;81.80
69595;DHT22;56800;52.142;5.364;2023-07-31T13:25:20;19.40;82.10
69595;DHT22;56800;52.142;5.364;2023-07-31T13:27:46;19.50;82.40
69595;DHT22;56800;52.142;5.364;2023-07-31T13:30:13;19.60;83.00
69595;DHT22;56800;52.142;5.364;2023-07-31T13:32:40;19.60;81.90
69595;DHT22;56800;52.142;5.364;2023-07-31T13:35:08;19.60;81.80
69595;DHT22;56800;52.142;5.364;2023-07-31T13:37:35;19.60;81.70
69595;DHT22;56800;52.142;5.364;2023-07-31T13:40:02;19.60;81.50
69595;DHT22;56800;52.142;5.364;2023-07-31T13:42:32;19.60;81.50
69595;DHT22;56800;52.142;5.364;2023-07-31T13:44:59;19.60;81.50
69595;DHT22;56800;52.142;5.364;2023-07-31T13:47:28;19.60;81.50
69595;DHT22;56800;52.142;5.364;2023-07-31T13:49:55;19.60;81.50
69595;DHT22;56800;52.142;5.364;2023-07-31T13:52:21;19.60;81.40
69595;DHT22;56800;52.142;5.364;2023-07-31T13:54:48;19.60;81.50
69595;DHT22;56800;52.142;5.364;2023-07-31T13:57:15;19.50;81.60
69595;DHT22;56800;52.142;5.364;2023-07-31T13:59:42;19.50;81.60
69595;DHT22;56800;52.142;5.364;2023-07-31T14:02:09;19.50;81.70
69595;DHT22;56800;52.142;5.364;2023-07-31T14:04:35;19.50;81.70
69595;DHT22;56800;52.142;5.364;2023-07-31T14:07:02;19.50;81.70
69595;DHT22;56800;52.142;5.364;2023-07-31T14:09:31;19.50;81.70
69595;DHT22;56800;52.142;5.364;2023-07-31T14:11:57;19.50;81.70
69595;DHT22;56800;52.142;5.364;2023-07-31T14:14:24;19.50;81.80
69595;DHT22;56800;52.142;5.364;2023-07-31T14:16:51;19.50;81.70
69595;DHT22;56800;52.142;5.364;2023-07-31T14:19:18;19.50;81.80
69595;DHT22;56800;52.142;5.364;2023-07-31T14:21:45;19.50;81.80
69595;DHT22;56800;52.142;5.364;2023-07-31T14:24:26;19.40;82.00
69595;DHT22;56800;52.142;5.364;2023-07-31T14:26:53;19.50;82.20
69595;DHT22;56800;52.142;5.364;2023-07-31T14:29:20;19.50;82.20
69595;DHT22;56800;52.142;5.364;2023-07-31T14:31:46;19.50;82.20
69595;DHT22;56800;52.142;5.364;2023-07-31T14:34:13;19.50;82.10
69595;DHT22;56800;52.142;5.364;2023-07-31T14:36:40;19.50;82.00
69595;DHT22;56800;52.142;5.364;2023-07-31T14:39:07;19.50;81.90
69595;DHT22;56800;52.142;5.364;2023-07-31T14:41:34;19.50;82.80
69595;DHT22;56800;52.142;5.364;2023-07-31T14:44:00;19.50;82.00
69595;DHT22;56800;52.142;5.364;2023-07-31T14:46:27;19.50;82.00
69595;DHT22;56800;52.142;5.364;2023-07-31T14:48:54;19.40;82.00
69595;DHT22;56800;52.142;5.364;2023-07-31T14:51:21;19.40;82.00
69595;DHT22;56800;52.142;5.364;2023-07-31T14:53:47;19.40;82.00
69595;DHT22;56800;52.142;5.364;2023-07-31T14:56:14;19.40;82.00
69595;DHT22;56800;52.142;5.364;2023-07-31T14:58:41;19.40;81.90
69595;DHT22;56800;52.142;5.364;2023-07-31T15:01:07;19.40;82.00
69595;DHT22;56800;52.142;5.364;2023-07-31T15:03:34;19.40;82.00
69595;DHT22;56800;52.142;5.364;2023-07-31T15:06:01;19.40;81.90
69595;DHT22;56800;52.142;5.364;2023-07-31T15:08:28;19.40;82.00
69595;DHT22;56800;52.142;5.364;2023-07-31T15:10:55;19.30;82.00
69595;DHT22;56800;52.142;5.364;2023-07-31T15:13:24;19.30;82.00
69595;DHT22;56800;52.142;5.364;2023-07-31T15:15:51;19.30;82.10
69595;DHT22;56800;52.142;5.364;2023-07-31T15:18:18;19.30;82.20
69595;DHT22;56800;52.142;5.364;2023-07-31T15:20:44;19.30;82.00
69595;DHT22;56800;52.142;5.364;2023-07-31T15:23:11;19.20;82.00
69595;DHT22;56800;52.142;5.364;2023-07-31T15:25:38;19.20;82.00
69595;DHT22;56800;52.142;5.364;2023-07-31T15:28:05;19.20;82.00
69595;DHT22;56800;52.142;5.364;2023-07-31T15:30:33;19.20;82.10
69595;DHT22;56800;52.142;5.364;2023-07-31T15:33:01;19.20;82.10
69595;DHT22;56800;52.142;5.364;2023-07-31T15:35:28;19.20;82.20
69595;DHT22;56800;52.142;5.364;2023-07-31T15:37:55;19.20;82.30
69595;DHT22;56800;52.142;5.364;2023-07-31T15:40:21;19.20;82.30
69595;DHT22;56800;52.142;5.364;2023-07-31T15:42:48;19.20;82.30
69595;DHT22;56800;52.142;5.364;2023-07-31T15:45:15;19.10;82.30
69595;DHT22;56800;52.142;5.364;2023-07-31T15:47:41;19.10;82.40